Bo Airport

Jump to: basic info | weather | comments

Related pages: nearby airports | nearby navaids | notams | map

Basic information (top)

Codes: KBS GFBO
Location: lon 7.944400, lat -11.761000, elev 328 ft / 100 m msl
Status: medium_airport
Scheduled airline service: yes
Links: Wikipedia Mobile

Weather (top)

Current conditions for Lungi International Airport 94nm (175km) WNW (rec'd 2015/04/25 13:00Z):

GFLL 251300Z 30010KT 9999 SCT014 FEW027CB 31/25 Q1013 RMK CB-NE

Airport forecast for Lungi International Airport 94nm (175km) WNW (rec'd 2015/04/25 12:00Z):

TAF GFLL 251000Z 2512/2618 09010KT 9999 BKN013 FEW027CB 
      TEMPO 2514/2522 30010KT 9999 SCT016 PROB30 
      BECMG 2523/2601 03011KT 8000 -RA BKN010 FEW026CB 
      TEMPO 2602/2610 31008KT 9999 BKN012

Latest comments (top)

No comments yet for Bo Airport

More... (top)

See also NOTAMs and nearby airports and navaids, or visit the Bo Airport page at the main OurAirports website..